Time;durP1;ratioP1;P1;durP2;ratioP2;P2;SDS_P1;SDS_P2;PMS_P1;PMS_P2;Temp;Humidity;BMP_temperature;BMP_pressure;BME280_temperature;BME280_humidity;BME280_pressure;Samples;Min_cycle;Max_cycle;Signal;HPM_P1;HPM_P2
2023/09/05 00:02:17;;;;;;;8.90;6.15;;;;;;;18.37;100.00;100259.41;5008308;28;20120;-79
2023/09/05 00:04:44;;;;;;;10.13;5.70;;;;;;;18.86;100.00;100322.19;5008390;28;20612;-80
2023/09/05 00:07:10;;;;;;;11.50;6.70;;;;;;;18.97;100.00;100329.22;5008250;28;20049;-79
2023/09/05 00:09:36;;;;;;;7.80;6.63;;;;;;;18.91;100.00;100315.22;5008042;28;20022;-79
2023/09/05 00:12:06;;;;;;;7.80;6.35;;;;;;;18.80;100.00;100311.72;5008428;28;20472;-78
2023/09/05 00:14:31;;;;;;;;;;;;;;;18.72;100.00;100316.94;5008632;28;20065;-78
2023/09/05 00:16:57;;;;;;;9.52;7.15;;;;;;;18.69;100.00;100313.44;5007644;28;19917;-78
2023/09/05 00:19:22;;;;;;;9.40;6.68;;;;;;;18.66;100.00;100306.47;5030728;28;20552;-77
2023/09/05 00:21:47;;;;;;;10.73;7.53;;;;;;;18.17;100.00;100241.06;5050361;28;20025;-77
2023/09/05 00:24:27;;;;;;;12.32;8.10;;;;;;;18.39;100.00;100273.31;5050294;28;20021;-77
2023/09/05 00:26:56;;;;;;;9.85;8.52;;;;;;;17.94;100.00;100214.03;5046132;28;20432;-77
2023/09/05 00:29:26;;;;;;;10.48;8.57;;;;;;;18.47;100.00;100312.53;5048839;28;20017;-77
2023/09/05 00:31:52;;;;;;;13.93;8.80;;;;;;;18.49;100.00;100314.31;5050230;28;20496;-76
2023/09/05 00:34:18;;;;;;;11.20;10.05;;;;;;;18.39;100.00;100299.47;5050178;28;20025;-77
2023/09/05 00:36:47;;;;;;;16.38;10.38;;;;;;;18.55;100.00;100309.06;5048705;28;20033;-77
2023/09/05 00:39:13;;;;;;;10.50;9.40;;;;;;;18.60;100.00;100309.09;5047171;28;20116;-76
2023/09/05 00:41:38;;;;;;;10.27;9.27;;;;;;;18.62;100.00;100302.13;5050061;28;20104;-77
2023/09/05 00:44:05;;;;;;;11.82;9.48;;;;;;;18.57;100.00;100298.63;5050203;28;20033;-76
2023/09/05 00:46:32;;;;;;;13.30;10.05;;;;;;;18.06;100.00;100210.56;5049784;28;20427;-76
2023/09/05 00:49:02;;;;;;;14.00;9.95;;;;;;;18.57;100.00;100280.34;5050036;28;20025;-77
2023/09/05 00:51:34;;;;;;;11.23;10.13;;;;;;;18.57;100.00;100281.19;5055120;28;20025;-75
2023/09/05 00:54:01;;;;;;;13.05;9.85;;;;;;;18.67;100.00;100287.31;5061359;28;20044;-74
2023/09/05 00:56:27;;;;;;;11.98;9.75;;;;;;;18.75;100.00;100295.16;5086788;28;20029;-76
2023/09/05 00:58:52;;;;;;;11.77;10.20;;;;;;;18.80;100.00;100285.56;5087961;28;20115;-76
2023/09/05 01:01:18;;;;;;;12.48;10.38;;;;;;;18.58;100.00;100238.50;5085614;28;20027;-74
2023/09/05 01:03:43;;;;;;;14.98;9.52;;;;;;;18.91;100.00;100282.97;5061117;28;20036;-75
2023/09/05 01:06:22;;;;;;;10.75;9.65;;;;;;;18.86;100.00;100280.31;5079077;28;20021;-75
2023/09/05 01:08:57;;;;;;;11.55;9.73;;;;;;;18.72;100.00;100255.94;5074379;28;20028;-76
2023/09/05 01:11:24;;;;;;;11.20;9.68;;;;;;;18.86;100.00;100282.94;5076467;28;20027;-76
2023/09/05 01:13:49;;;;;;;10.95;9.85;;;;;;;18.44;100.00;100219.31;5092420;28;20039;-77
2023/09/05 01:16:15;;;;;;;10.55;9.45;;;;;;;17.62;100.00;100084.25;5076390;28;20024;-77
2023/09/05 01:18:41;;;;;;;12.80;9.40;;;;;;;18.73;100.00;100286.47;5094693;28;20119;-78
2023/09/05 01:21:35;;;;;;;13.00;10.20;;;;;;;18.66;100.00;100284.69;5076692;28;20131;-77
2023/09/05 01:24:21;;;;;;;23.05;10.18;;;;;;;18.03;100.00;100183.56;5076412;28;20034;-77
2023/09/05 01:26:49;;;;;;;15.25;9.85;;;;;;;18.54;100.00;100267.25;5094514;28;20103;-75
2023/09/05 01:29:18;;;;;;;14.35;9.57;;;;;;;18.47;100.00;100278.56;5094530;28;20506;-76
2023/09/05 01:31:45;;;;;;;13.88;10.27;;;;;;;18.53;100.00;100307.31;5094552;28;20032;-76
2023/09/05 01:34:11;;;;;;;13.77;9.77;;;;;;;18.01;100.00;100227.97;5076021;28;20062;-76
2023/09/05 01:36:36;;;;;;;11.40;10.20;;;;;;;18.42;100.00;100299.50;5094328;28;20031;-76
2023/09/05 01:39:02;;;;;;;22.33;11.25;;;;;;;18.41;100.00;100306.44;5076010;28;20032;-76
2023/09/05 01:41:27;;;;;;;16.63;11.35;;;;;;;18.38;100.00;100311.69;5094309;28;20781;-76
2023/09/05 01:43:52;;;;;;;13.88;10.32;;;;;;;18.23;100.00;100299.44;5093772;28;20110;-75
2023/09/05 01:46:18;;;;;;;11.38;10.15;;;;;;;18.23;100.00;100322.06;5075735;28;20491;-76
2023/09/05 01:48:43;;;;;;;13.07;11.15;;;;;;;18.30;100.00;100320.38;5093819;28;20502;-76
2023/09/05 01:51:09;;;;;;;13.02;11.73;;;;;;;18.45;100.00;100322.16;5092726;28;20158;-77
2023/09/05 01:53:34;;;;;;;11.77;10.68;;;;;;;18.50;100.00;100308.19;5093378;28;20123;-79
2023/09/05 01:56:00;;;;;;;12.68;11.43;;;;;;;18.67;100.00;100329.16;5092649;28;20190;-75
2023/09/05 01:58:25;;;;;;;12.68;11.35;;;;;;;18.78;100.00;100323.94;5093382;28;20085;-78
2023/09/05 02:00:50;;;;;;;13.52;11.35;;;;;;;18.86;100.00;100321.31;5073998;28;20028;-76
2023/09/05 02:03:16;;;;;;;14.77;11.25;;;;;;;18.88;100.00;100307.38;5092403;28;20035;-76
2023/09/05 02:05:41;;;;;;;13.18;11.48;;;;;;;18.79;100.00;100332.66;5093019;28;20020;-76
2023/09/05 02:08:07;;;;;;;14.32;11.85;;;;;;;18.80;100.00;100323.94;5091614;28;20032;-77
2023/09/05 02:10:32;;;;;;;13.27;11.98;;;;;;;18.78;100.00;100320.44;5092872;28;20387;-77
2023/09/05 02:12:58;;;;;;;13.75;12.18;;;;;;;18.73;100.00;100318.69;5092578;28;20016;-77
2023/09/05 02:15:23;;;;;;;14.20;12.68;;;;;;;18.84;100.00;100330.91;5092371;28;20044;-76
2023/09/05 02:17:49;;;;;;;15.73;12.40;;;;;;;18.86;100.00;100323.94;5091424;28;20031;-75
2023/09/05 02:20:14;;;;;;;15.52;12.20;;;;;;;18.89;100.00;100330.03;5073677;28;20520;-75
2023/09/05 02:22:44;;;;;;;14.43;12.00;;;;;;;18.80;100.00;100324.78;5092542;28;20031;-75
2023/09/05 02:25:12;;;;;;;14.35;12.95;;;;;;;18.96;100.00;100324.84;5074597;28;20042;-77
2023/09/05 02:27:38;;;;;;;13.88;12.07;;;;;;;18.92;100.00;100303.91;5092975;28;20038;-76
2023/09/05 02:30:07;;;;;;;16.95;11.43;;;;;;;18.92;100.00;100319.59;5070861;28;20035;-77
2023/09/05 02:32:33;;;;;;;11.77;10.50;;;;;;;18.73;100.00;100291.69;5090743;28;20107;-76
2023/09/05 02:34:58;;;;;;;12.98;10.80;;;;;;;18.67;100.00;100291.69;5092655;28;20034;-76
2023/09/05 02:37:24;;;;;;;14.85;10.25;;;;;;;18.36;100.00;100249.81;5092666;28;20026;-75
2023/09/05 02:39:49;;;;;;;11.80;9.95;;;;;;;18.58;100.00;100297.78;5074248;28;20054;-77
2023/09/05 02:42:15;;;;;;;13.13;10.68;;;;;;;18.55;100.00;100296.00;5074242;28;20021;-75
2023/09/05 02:44:40;;;;;;;11.70;10.50;;;;;;;18.59;100.00;100296.88;5091925;28;20410;-77
2023/09/05 02:47:06;;;;;;;13.70;9.88;;;;;;;18.51;100.00;100289.03;5092266;28;20027;-75
2023/09/05 02:49:31;;;;;;;12.68;9.82;;;;;;;18.53;100.00;100300.38;5092327;28;20118;-75
2023/09/05 02:51:57;;;;;;;14.15;10.60;;;;;;;18.40;100.00;100288.16;5091814;28;20028;-75
2023/09/05 02:54:23;;;;;;;13.75;10.00;;;;;;;18.49;100.00;100298.63;5073644;28;20483;-74
2023/09/05 02:56:49;;;;;;;19.40;11.10;;;;;;;18.54;100.00;100301.22;5092097;28;20061;-77
2023/09/05 02:59:15;;;;;;;15.65;10.48;;;;;;;18.56;100.00;100307.34;5091626;28;20024;-77
2023/09/05 03:01:40;;;;;;;13.57;10.20;;;;;;;18.57;100.00;100307.34;5091884;28;20413;-77
2023/09/05 03:04:06;;;;;;;11.88;10.57;;;;;;;18.51;100.00;100302.09;5041896;28;20531;-77
2023/09/05 03:06:31;;;;;;;11.80;10.00;;;;;;;18.61;100.00;100323.06;5060013;28;20160;-73
2023/09/05 03:08:57;;;;;;;10.52;9.52;;;;;;;18.59;100.00;100304.72;5060392;28;20045;-76
2023/09/05 03:11:22;;;;;;;12.60;10.02;;;;;;;18.64;100.00;100321.31;5059210;28;20040;-74
2023/09/05 03:13:48;;;;;;;12.57;10.55;;;;;;;18.54;100.00;100306.47;5060244;28;20053;-75
2023/09/05 03:16:14;;;;;;;13.00;10.43;;;;;;;18.65;100.00;100328.25;5058878;28;20028;-72
2023/09/05 03:18:40;;;;;;;11.23;10.02;;;;;;;18.69;100.00;100319.56;5059360;28;20494;-77
2023/09/05 03:21:05;;;;;;;23.55;11.32;;;;;;;18.69;100.00;100322.19;5057727;28;20151;-73
2023/09/05 03:23:31;;;;;;;11.82;10.30;;;;;;;18.64;100.00;100312.59;5042528;28;20082;-72
2023/09/05 03:25:57;;;;;;;18.50;10.50;;;;;;;18.67;100.00;100331.75;5058948;28;20063;-75
2023/09/05 03:28:23;;;;;;;15.07;10.32;;;;;;;18.34;100.00;100262.84;5057424;28;20488;-73
2023/09/05 03:30:48;;;;;;;14.02;10.68;;;;;;;18.80;100.00;100330.03;5054013;28;20555;-73
2023/09/05 03:33:14;;;;;;;11.32;10.10;;;;;;;18.87;100.00;100323.94;5058285;28;20111;-76
2023/09/05 03:35:42;;;;;;;11.50;10.02;;;;;;;18.87;100.00;100307.38;5082576;28;20035;-75
2023/09/05 03:38:07;;;;;;;12.90;10.50;;;;;;;18.93;100.00;100330.97;5091259;28;20042;-76
2023/09/05 03:40:34;;;;;;;12.38;10.95;;;;;;;18.87;100.00;100334.38;5091267;28;20447;-75
2023/09/05 03:43:00;;;;;;;11.88;10.30;;;;;;;18.62;100.00;100291.66;5090767;28;20514;-74
2023/09/05 03:45:27;;;;;;;14.45;11.00;;;;;;;18.90;100.00;100321.38;5090996;28;20036;-75
2023/09/05 03:50:28;;;;;;;13.02;11.68;;;;;;;18.88;100.00;100343.13;5872132;22;20496;-78
2023/09/05 03:52:53;;;;;;;12.90;11.52;;;;;;;18.69;100.00;100343.09;5070994;28;20046;-78
2023/09/05 03:55:19;;;;;;;13.50;12.10;;;;;;;18.03;100.00;100228.84;5071168;28;20027;-79
2023/09/05 03:57:45;;;;;;;13.63;11.40;;;;;;;18.82;100.00;100343.13;5071003;28;20447;-80
2023/09/05 04:00:10;;;;;;;13.45;12.05;;;;;;;18.81;100.00;100344.84;5070866;28;20524;-79
2023/09/05 04:02:36;;;;;;;19.65;11.70;;;;;;;18.75;100.00;100337.00;5071243;28;20082;-78
2023/09/05 04:05:01;;;;;;;13.48;11.18;;;;;;;18.67;100.00;100326.53;5070826;28;20092;-75
2023/09/05 04:07:27;;;;;;;14.32;10.65;;;;;;;18.62;100.00;100332.59;5070341;28;20021;-76
2023/09/05 04:09:53;;;;;;;28.10;11.25;;;;;;;18.56;100.00;100331.72;5070699;28;20017;-76
2023/09/05 04:12:18;;;;;;;58.72;14.02;;;;;;;18.57;100.00;100337.84;5070470;28;20021;-77
2023/09/05 04:14:44;;;;;;;15.80;10.95;;;;;;;18.57;100.00;100338.72;5070323;28;20017;-76
2023/09/05 04:17:09;;;;;;;14.60;10.38;;;;;;;18.42;100.00;100312.56;5069737;28;20062;-78
2023/09/05 04:19:35;;;;;;;12.25;10.43;;;;;;;18.45;100.00;100317.78;5049490;28;20029;-79
2023/09/05 04:22:00;;;;;;;16.63;10.85;;;;;;;18.17;100.00;100288.97;5050827;28;20074;-78
2023/09/05 04:24:25;;;;;;;11.70;10.50;;;;;;;18.23;100.00;100306.38;5070393;28;20091;-80
2023/09/05 04:26:52;;;;;;;13.75;9.73;;;;;;;18.25;100.00;100317.72;5068783;28;20031;-79
2023/09/05 04:29:17;;;;;;;23.30;10.75;;;;;;;18.28;100.00;100330.81;5070499;28;20023;-81
2023/09/05 04:31:43;;;;;;;13.82;10.45;;;;;;;18.31;100.00;100335.19;5070772;28;20036;-79
2023/09/05 04:34:08;;;;;;;33.60;12.10;;;;;;;18.31;100.00;100329.94;5068479;28;20406;-81
2023/09/05 04:36:36;;;;;;;17.00;10.85;;;;;;;18.35;100.00;100323.84;5070122;28;20055;-79
2023/09/05 04:39:03;;;;;;;16.75;10.38;;;;;;;18.37;100.00;100311.69;5052200;28;20016;-81
2023/09/05 04:41:28;;;;;;;17.40;10.70;;;;;;;18.57;100.00;100327.41;5069561;28;20013;-80
2023/09/05 04:43:54;;;;;;;14.32;10.00;;;;;;;18.66;100.00;100327.41;5067912;28;20078;-79
2023/09/05 04:46:19;;;;;;;34.17;11.23;;;;;;;18.76;100.00;100328.28;5068438;28;20082;-79
2023/09/05 04:48:44;;;;;;;16.02;10.27;;;;;;;18.85;100.00;100320.44;5070255;28;20066;-80
2023/09/05 04:51:10;;;;;;;18.25;10.05;;;;;;;18.76;100.00;100303.00;5068230;28;20044;-79
2023/09/05 04:53:35;;;;;;;17.83;9.68;;;;;;;18.67;100.00;100276.00;5070436;28;20025;-82
2023/09/05 04:56:02;;;;;;;13.70;9.70;;;;;;;18.98;100.00;100323.97;5050065;28;20486;-80
2023/09/05 04:58:29;;;;;;;16.90;9.77;;;;;;;18.72;100.00;100311.72;5068986;28;20119;-79
2023/09/05 05:01:02;;;;;;;13.73;9.70;;;;;;;18.64;100.00;100296.88;5069939;28;20025;-78
2023/09/05 05:03:33;;;;;;;17.77;11.38;;;;;;;18.74;100.00;100307.38;5026692;28;20028;-77
2023/09/05 05:05:59;;;;;;;22.30;10.68;;;;;;;18.30;100.00;100236.75;5060505;28;20352;-79
2023/09/05 05:08:25;;;;;;;26.50;10.80;;;;;;;18.78;100.00;100292.56;5070548;28;20459;-78
2023/09/05 05:10:50;;;;;;;15.70;9.05;;;;;;;18.64;100.00;100273.34;5073387;28;20051;-77
2023/09/05 05:13:16;;;;;;;11.27;8.68;;;;;;;18.80;100.00;100292.53;5057805;28;20024;-78
2023/09/05 05:15:45;;;;;;;10.75;8.98;;;;;;;18.72;100.00;100277.72;5037321;28;20063;-83
2023/09/05 05:18:11;;;;;;;17.80;9.85;;;;;;;19.01;100.00;100300.41;5066967;28;20028;-78
2023/09/05 05:20:37;;;;;;;18.48;10.18;;;;;;;18.99;100.00;100288.22;5064280;28;20685;-78
2023/09/05 05:23:04;;;;;;;17.80;9.50;;;;;;;19.05;100.00;100283.88;5046690;28;20024;-79
2023/09/05 05:25:29;;;;;;;24.08;9.40;;;;;;;19.32;100.00;100310.00;5064430;28;20044;-79
2023/09/05 05:27:56;;;;;;;13.77;8.73;;;;;;;18.86;100.00;100216.69;5046985;28;20479;-79
2023/09/05 05:30:21;;;;;;;13.00;8.43;;;;;;;19.07;100.00;100234.13;5065187;28;20020;-77
2023/09/05 05:32:47;;;;;;;8.95;7.82;;;;;;;19.61;100.00;100306.44;5064881;28;21018;-83
2023/09/05 05:35:13;;;;;;;12.02;7.45;;;;;;;19.49;100.00;100266.31;5047146;28;20143;-77
2023/09/05 05:37:38;;;;;;;10.27;7.82;;;;;;;19.73;100.00;100296.78;5064459;28;20739;-78
2023/09/05 05:40:04;;;;;;;18.55;8.45;;;;;;;19.59;100.00;100284.59;5046973;28;20047;-76
2023/09/05 05:42:30;;;;;;;21.00;8.18;;;;;;;19.71;100.00;100310.75;5064768;28;20487;-78
2023/09/05 05:44:55;;;;;;;9.18;8.02;;;;;;;19.75;100.00;100325.63;5064938;28;20017;-76
2023/09/05 05:47:22;;;;;;;18.83;8.85;;;;;;;19.62;100.00;100308.19;5065063;28;20027;-79
2023/09/05 05:49:48;;;;;;;31.92;9.25;;;;;;;19.85;100.00;100345.69;5064328;28;20510;-81
2023/09/05 05:52:13;;;;;;;17.77;9.43;;;;;;;19.90;100.00;100347.41;5043870;28;20083;-76
2023/09/05 05:54:39;;;;;;;12.40;8.27;;;;;;;19.77;100.00;100336.94;5038126;28;20365;-80
2023/09/05 05:57:04;;;;;;;8.95;7.75;;;;;;;19.94;100.00;100354.38;5041009;28;20040;-81
2023/09/05 05:59:30;;;;;;;10.32;8.30;;;;;;;19.85;100.00;100340.44;5066184;28;20103;-77
2023/09/05 06:01:56;;;;;;;10.15;8.15;;;;;;;20.02;100.00;100365.72;5050110;28;20028;-78
2023/09/05 06:04:23;;;;;;;10.82;8.65;;;;;;;19.97;100.00;100365.72;5049851;28;20028;-80
2023/09/05 06:06:49;;;;;;;10.88;7.50;;;;;;;20.06;100.00;100367.44;5068138;28;20113;-80
2023/09/05 06:09:18;;;;;;;10.65;7.75;;;;;;;20.10;100.00;100377.03;5068100;28;20167;-79
2023/09/05 06:11:45;;;;;;;9.48;8.30;;;;;;;20.06;100.00;100370.06;5050477;28;20031;-79
2023/09/05 06:14:13;;;;;;;12.38;7.75;;;;;;;19.96;100.00;100365.72;5067599;28;20487;-79
2023/09/05 06:16:39;;;;;;;16.23;8.20;;;;;;;19.97;100.00;100372.72;5068123;28;20063;-76
2023/09/05 06:19:04;;;;;;;9.55;7.65;;;;;;;19.97;100.00;100377.97;5049723;28;20471;-79
2023/09/05 06:21:30;;;;;;;15.60;8.10;;;;;;;20.04;100.00;100385.78;5067989;28;20058;-78
2023/09/05 06:23:55;;;;;;;11.35;7.10;;;;;;;19.87;100.00;100370.09;5066094;28;20031;-75
2023/09/05 06:26:20;;;;;;;11.07;7.20;;;;;;;20.01;100.00;100390.16;5049841;28;20115;-78
2023/09/05 06:28:48;;;;;;;10.63;6.93;;;;;;;19.98;100.00;100387.56;5067449;28;20025;-81
2023/09/05 06:31:14;;;;;;;10.82;7.35;;;;;;;19.93;100.00;100378.84;5068009;28;20045;-77
2023/09/05 06:33:39;;;;;;;9.50;6.97;;;;;;;19.99;100.00;100402.41;5049551;28;20024;-82
2023/09/05 06:36:06;;;;;;;23.25;8.27;;;;;;;19.94;100.00;100391.06;5048963;28;20085;-80
2023/09/05 06:38:31;;;;;;;12.13;7.45;;;;;;;20.03;100.00;100399.75;5067480;28;20032;-80
2023/09/05 06:40:56;;;;;;;10.15;7.00;;;;;;;19.91;100.00;100412.03;5068117;28;20487;-80
2023/09/05 06:43:22;;;;;;;20.77;8.13;;;;;;;20.12;100.00;100427.69;5067294;28;20017;-80
2023/09/05 06:45:47;;;;;;;14.35;6.95;;;;;;;20.10;100.00;100428.56;5049359;28;20024;-79
2023/09/05 06:48:13;;;;;;;15.07;7.38;;;;;;;19.90;100.00;100407.66;5049165;28;20325;-80
2023/09/05 06:50:38;;;;;;;11.77;7.82;;;;;;;19.64;100.00;100382.34;5048778;28;20052;-76
2023/09/05 06:53:04;;;;;;;8.77;7.05;;;;;;;20.00;100.00;100444.34;5066799;28;20051;-78
2023/09/05 06:55:34;;;;;;;21.27;8.00;;;;;;;19.84;100.00;100395.47;5048851;28;20101;-74
2023/09/05 06:58:00;;;;;;;10.95;7.68;;;;;;;20.14;100.00;100443.44;5067217;28;20038;-84
2023/09/05 07:00:25;;;;;;;10.23;7.20;;;;;;;20.15;100.00;100432.03;5049256;28;20769;-79
2023/09/05 07:02:51;;;;;;;13.77;8.50;;;;;;;20.23;100.00;100435.53;5068436;28;20013;-78
2023/09/05 07:05:16;;;;;;;12.05;8.32;;;;;;;20.29;100.00;100442.50;5071009;28;20750;-79
2023/09/05 07:07:42;;;;;;;11.75;7.97;;;;;;;20.17;100.00;100433.78;5071631;28;20479;-80
2023/09/05 07:10:09;;;;;;;12.65;7.32;;;;;;;20.34;100.00;100457.31;5053422;28;20039;-78
2023/09/05 07:12:35;;;;;;;12.45;9.15;;;;;;;20.44;100.00;100462.56;5036121;28;20124;-80
2023/09/05 07:15:01;;;;;;;13.00;7.45;;;;;;;20.51;100.00;100459.00;5071144;28;20438;-79
2023/09/05 07:17:27;;;;;;;11.05;7.55;;;;;;;20.38;100.00;100431.13;5071525;28;20024;-78
2023/09/05 07:19:52;;;;;;;11.02;7.65;;;;;;;20.49;100.00;100448.53;5053256;28;20115;-78
2023/09/05 07:22:18;;;;;;;13.35;7.55;;;;;;;20.50;100.00;100459.91;5052367;28;20087;-80
2023/09/05 07:24:43;;;;;;;13.27;8.30;;;;;;;20.49;100.00;100464.25;5053728;28;20028;-78
2023/09/05 07:27:10;;;;;;;12.13;8.68;;;;;;;20.45;100.00;100451.16;5053215;28;20020;-78
2023/09/05 07:29:35;;;;;;;11.27;8.63;;;;;;;20.41;100.00;100446.81;5053638;28;20047;-77
2023/09/05 07:32:01;;;;;;;24.70;9.68;;;;;;;20.46;100.00;100463.41;5071022;28;20052;-78
2023/09/05 07:34:26;;;;;;;17.55;9.20;;;;;;;20.46;100.00;100461.66;5070876;28;20021;-79
2023/09/05 07:36:54;;;;;;;11.15;8.75;;;;;;;20.25;100.00;100431.16;5052088;28;20020;-78
2023/09/05 07:39:20;;;;;;;12.13;8.77;;;;;;;20.35;100.00;100450.34;5052121;28;20036;-79
2023/09/05 07:41:45;;;;;;;25.33;9.73;;;;;;;20.28;100.00;100441.63;5052422;28;20500;-79
2023/09/05 07:44:11;;;;;;;25.05;9.10;;;;;;;20.35;100.00;100458.22;5069204;28;20016;-81
2023/09/05 07:46:37;;;;;;;15.82;9.27;;;;;;;20.25;100.00;100438.13;5062114;28;20034;-79
2023/09/05 07:49:03;;;;;;;13.60;8.90;;;;;;;20.32;100.00;100466.94;5052542;28;20020;-83
2023/09/05 07:51:29;;;;;;;15.40;11.82;;;;;;;20.38;100.00;100455.56;5051587;28;20076;-78
2023/09/05 07:54:03;;;;;;;41.60;23.42;;;;;;;20.40;100.00;100452.94;5068067;28;20075;-79
2023/09/05 07:56:29;;;;;;;37.70;27.30;;;;;;;20.39;100.00;100436.34;5065764;28;20446;-79
2023/09/05 07:58:55;;;;;;;20.23;16.95;;;;;;;20.55;100.00;100458.13;5052681;28;20021;-77
2023/09/05 08:01:20;;;;;;;29.80;18.13;;;;;;;20.42;100.00;100424.97;5051800;28;20056;-78
2023/09/05 08:03:49;;;;;;;17.88;14.48;;;;;;;20.62;100.00;100454.63;5052012;28;20071;-78
2023/09/05 08:06:15;;;;;;;17.48;12.70;;;;;;;20.50;100.00;100445.03;5052313;28;20025;-78
2023/09/05 08:08:41;;;;;;;18.27;12.63;;;;;;;20.64;100.00;100472.97;5049182;28;20602;-78
2023/09/05 08:11:07;;;;;;;16.77;11.10;;;;;;;20.49;100.00;100447.66;5052316;28;20031;-76
2023/09/05 08:13:33;;;;;;;22.75;10.75;;;;;;;20.52;100.00;100445.03;5051434;28;20038;-78
2023/09/05 08:15:58;;;;;;;13.02;9.93;;;;;;;19.84;100.00;100340.47;5050425;28;20733;-78
2023/09/05 08:18:24;;;;;;;11.38;9.73;;;;;;;20.70;100.00;100472.94;5069388;28;20028;-79
2023/09/05 08:20:50;;;;;;;15.45;10.23;;;;;;;20.79;100.00;100469.41;5062353;28;20040;-80
2023/09/05 08:23:15;;;;;;;16.02;9.65;;;;;;;20.89;100.00;100465.00;5051523;28;20029;-79
2023/09/05 08:25:41;;;;;;;20.17;9.02;;;;;;;21.03;100.00;100488.53;5051924;28;20115;-78
2023/09/05 08:28:07;;;;;;;13.90;8.40;;;;;;;21.10;100.00;100508.63;5051515;28;20020;-78
2023/09/05 08:30:32;;;;;;;17.83;11.27;;;;;;;21.13;100.00;100498.97;5049396;28;20115;-78
2023/09/05 08:33:01;;;;;;;16.00;9.65;;;;;;;20.68;100.00;100437.94;5052396;28;20028;-81
2023/09/05 08:35:27;;;;;;;;;;;;;;;21.16;100.00;100519.94;5050572;28;20574;-80
2023/09/05 08:37:53;;;;;;;16.77;8.05;;;;;;;20.98;100.00;100506.91;5051388;28;19922;-79
2023/09/05 08:40:20;;;;;;;19.13;7.70;;;;;;;21.13;100.00;100525.22;5051754;28;20017;-82
2023/09/05 08:42:50;;;;;;;13.93;7.05;;;;;;;20.99;100.00;100503.41;5049673;28;20060;-79
2023/09/05 08:45:22;;;;;;;18.98;8.00;;;;;;;21.06;100.00;100528.75;5048921;28;20024;-82
2023/09/05 08:47:48;;;;;;;21.55;8.52;;;;;;;21.03;100.00;100526.13;5068276;28;20028;-82
2023/09/05 08:50:13;;;;;;;27.25;10.32;;;;;;;20.96;100.00;100527.03;5048175;28;20071;-77
2023/09/05 08:52:42;;;;;;;23.15;9.15;;;;;;;20.57;100.00;100461.59;5069108;28;20460;-80
2023/09/05 08:55:09;;;;;;;30.75;10.65;;;;;;;21.00;100.00;100540.16;5050288;28;20102;-81
2023/09/05 08:57:38;;;;;;;33.50;15.68;;;;;;;20.94;100.00;100534.06;5051569;28;20020;-81
2023/09/05 09:00:04;;;;;;;20.93;8.40;;;;;;;20.80;100.00;100500.03;5052067;28;20016;-80
2023/09/05 09:02:30;;;;;;;22.60;7.82;;;;;;;21.01;100.00;100541.03;5051729;28;20025;-82
2023/09/05 09:04:56;;;;;;;23.13;8.18;;;;;;;20.99;100.00;100529.66;5051691;28;20032;-77
2023/09/05 09:07:29;;;;;;;27.48;11.95;;;;;;;21.16;100.00;100559.31;5052269;28;20023;-79
2023/09/05 09:09:56;;;;;;;28.85;9.35;;;;;;;21.25;100.00;100568.03;5051758;28;20037;-79
2023/09/05 09:12:32;;;;;;;20.88;7.88;;;;;;;21.36;100.00;100558.34;5069195;28;20017;-80
2023/09/05 09:15:13;;;;;;;22.60;8.63;;;;;;;21.39;100.00;100555.69;5053907;28;20115;-83
2023/09/05 09:17:45;;;;;;;31.10;9.43;;;;;;;21.33;100.00;100545.22;5033815;28;20067;-84
2023/09/05 09:20:13;;;;;;;36.40;9.52;;;;;;;21.25;100.00;100526.91;5049712;28;20060;-82
2023/09/05 09:22:41;;;;;;;26.55;15.80;;;;;;;21.54;100.00;100580.13;5012709;28;20041;-81
2023/09/05 09:25:10;;;;;;;31.23;9.40;;;;;;;20.50;100.00;100403.06;5013656;28;20029;-80
2023/09/05 09:27:37;;;;;;;29.65;9.18;;;;;;;21.24;100.00;100543.53;4991553;28;20038;-81
2023/09/05 09:30:08;;;;;;;33.25;10.57;;;;;;;21.21;100.00;100542.66;4977875;28;20046;-83
2023/09/05 09:32:37;;;;;;;19.00;7.57;;;;;;;21.48;100.00;100589.78;4991777;28;20073;-81
2023/09/05 09:35:07;;;;;;;43.15;10.85;;;;;;;21.25;100.00;100547.91;4985205;28;20035;-78
2023/09/05 09:37:33;;;;;;;;;;;;;;;21.42;100.00;100586.31;4993139;28;20061;-83
2023/09/05 09:40:06;;;;;;;20.65;8.35;;;;;;;21.36;100.00;100584.59;4994636;28;19914;-85
2023/09/05 09:42:33;;;;;;;31.25;10.30;;;;;;;21.37;100.00;100588.97;4973840;28;20130;-82
2023/09/05 09:45:00;;;;;;;35.45;10.65;;;;;;;21.09;100.00;100538.38;4953745;28;20035;-77
2023/09/05 09:47:28;;;;;;;32.88;9.57;;;;;;;21.21;100.00;100568.91;4962464;28;20031;-78
2023/09/05 09:49:53;;;;;;;23.30;9.98;;;;;;;21.15;100.00;100562.81;4954988;28;20030;-80
2023/09/05 09:52:20;;;;;;;25.77;9.85;;;;;;;21.27;100.00;100585.53;4962989;28;20082;-80
2023/09/05 09:54:46;;;;;;;28.23;10.20;;;;;;;21.34;100.00;100596.88;4950737;28;20035;-79
2023/09/05 09:57:24;;;;;;;20.75;8.02;;;;;;;21.33;100.00;100605.63;4961495;28;20090;-81
2023/09/05 10:00:00;;;;;;;25.55;9.80;;;;;;;21.36;100.00;100605.63;4997126;28;20046;-81
2023/09/05 10:02:28;;;;;;;26.08;9.25;;;;;;;21.20;100.00;100577.66;5011073;28;20030;-80
2023/09/05 10:04:54;;;;;;;22.77;8.07;;;;;;;21.25;100.00;100589.06;5010889;28;20036;-83
2023/09/05 10:07:21;;;;;;;26.48;9.45;;;;;;;21.29;100.00;100601.28;4994298;28;20029;-79
2023/09/05 10:09:49;;;;;;;17.52;7.68;;;;;;;21.20;100.00;100599.56;4994077;28;20036;-78
2023/09/05 10:12:20;;;;;;;11.88;6.35;;;;;;;20.89;100.00;100541.09;4995240;28;20026;-77
2023/09/05 10:14:48;;;;;;;15.18;6.75;;;;;;;21.26;100.00;100611.78;5037700;28;20067;-79
2023/09/05 10:17:15;;;;;;;22.95;8.43;;;;;;;21.32;100.00;100614.38;5027990;28;20036;-78
2023/09/05 10:19:42;;;;;;;22.48;8.90;;;;;;;21.30;100.00;100622.25;5050093;28;20032;-77
2023/09/05 10:22:09;;;;;;;32.72;9.43;;;;;;;21.21;100.00;100605.69;5050108;28;20373;-78
2023/09/05 10:24:37;;;;;;;28.70;10.90;;;;;;;21.28;100.00;100607.41;5050419;28;20081;-80
2023/09/05 10:27:03;;;;;;;29.23;10.13;;;;;;;21.27;100.00;100613.53;5049415;28;20032;-79
2023/09/05 10:29:44;;;;;;;28.75;8.10;;;;;;;20.58;100.00;100520.19;5067841;28;20102;-79
2023/09/05 10:32:14;;;;;;;21.33;8.50;;;;;;;21.16;100.00;100618.84;5064120;28;20040;-79
2023/09/05 10:34:50;;;;;;;;;;;;;;;21.08;100.00;100624.09;5051074;28;20016;-81
2023/09/05 10:37:26;;;;;;;29.65;10.02;;;;;;;20.90;100.00;100587.44;5050429;28;20170;-80
2023/09/05 10:40:02;;;;;;;36.10;10.95;;;;;;;20.94;100.00;100608.41;5048720;28;20025;-79
2023/09/05 10:42:29;;;;;;;30.00;10.95;;;;;;;20.90;100.00;100605.81;5035046;28;20063;-78
2023/09/05 10:44:55;;;;;;;27.50;10.63;;;;;;;20.78;100.00;100588.38;5049704;28;20475;-78
2023/09/05 10:47:39;;;;;;;24.25;8.20;;;;;;;20.84;100.00;100618.06;5050144;28;20519;-79
2023/09/05 10:50:07;;;;;;;21.48;8.65;;;;;;;20.69;100.00;100597.97;5068048;28;20290;-80
2023/09/05 10:52:33;;;;;;;24.55;9.95;;;;;;;20.77;100.00;100616.38;5051089;28;20413;-79
2023/09/05 10:55:29;;;;;;;23.63;8.93;;;;;;;20.59;100.00;100624.25;5068177;28;20020;-81
2023/09/05 10:57:55;;;;;;;28.23;10.18;;;;;;;20.45;100.00;100613.75;5052033;28;20479;-80
2023/09/05 11:00:23;;;;;;;35.42;12.52;;;;;;;20.46;100.00;100621.63;5044843;28;20020;-80
2023/09/05 11:02:49;;;;;;;36.75;12.73;;;;;;;20.46;100.00;100621.63;5073248;28;20028;-78
2023/09/05 11:05:19;;;;;;;36.80;12.10;;;;;;;20.35;100.00;100607.66;5053820;28;20016;-81
2023/09/05 11:07:50;;;;;;;35.53;13.02;;;;;;;20.35;100.00;100603.28;5047782;28;21164;-84
2023/09/05 11:10:37;;;;;;;28.58;13.05;;;;;;;20.36;100.00;100598.91;5049040;28;20040;-80